sensor_id;sensor_type;location;lat;lon;timestamp;P1;durP1;ratioP1;P2;durP2;ratioP2
23402;SDS011;11874;48.228;11.684;2023-04-24T07:11:06;3.22;;;0.40;;
23402;SDS011;11874;48.228;11.684;2023-04-24T07:13:34;0.52;;;0.40;;
23402;SDS011;11874;48.228;11.684;2023-04-24T07:16:02;0.28;;;0.22;;
23402;SDS011;11874;48.228;11.684;2023-04-24T07:18:30;0.60;;;0.50;;
23402;SDS011;11874;48.228;11.684;2023-04-24T07:20:58;0.50;;;0.50;;
23402;SDS011;11874;48.228;11.684;2023-04-24T07:23:27;2.78;;;0.40;;
23402;SDS011;11874;48.228;11.684;2023-04-24T07:25:54;0.95;;;0.20;;
23402;SDS011;11874;48.228;11.684;2023-04-24T07:28:24;0.68;;;0.40;;
23402;SDS011;11874;48.228;11.684;2023-04-24T07:30:52;1.02;;;0.40;;
23402;SDS011;11874;48.228;11.684;2023-04-24T07:33:20;0.50;;;0.50;;
23402;SDS011;11874;48.228;11.684;2023-04-24T07:35:48;1.20;;;0.40;;
23402;SDS011;11874;48.228;11.684;2023-04-24T07:38:16;1.05;;;0.50;;
23402;SDS011;11874;48.228;11.684;2023-04-24T07:40:46;0.80;;;0.40;;
23402;SDS011;11874;48.228;11.684;2023-04-24T07:43:14;2.50;;;0.40;;
23402;SDS011;11874;48.228;11.684;2023-04-24T07:45:43;2.08;;;0.20;;
23402;SDS011;11874;48.228;11.684;2023-04-24T07:48:11;0.30;;;0.30;;
23402;SDS011;11874;48.228;11.684;2023-04-24T07:50:41;0.30;;;0.30;;
23402;SDS011;11874;48.228;11.684;2023-04-24T07:53:08;0.47;;;0.38;;
23402;SDS011;11874;48.228;11.684;2023-04-24T07:55:36;0.80;;;0.40;;
23402;SDS011;11874;48.228;11.684;2023-04-24T07:58:04;0.57;;;0.38;;
23402;SDS011;11874;48.228;11.684;2023-04-24T08:00:32;2.92;;;0.38;;
23402;SDS011;11874;48.228;11.684;2023-04-24T08:03:02;1.13;;;0.50;;
23402;SDS011;11874;48.228;11.684;2023-04-24T08:05:30;1.00;;;0.50;;
23402;SDS011;11874;48.228;11.684;2023-04-24T08:07:58;0.63;;;0.30;;
23402;SDS011;11874;48.228;11.684;2023-04-24T08:10:26;0.40;;;0.40;;
23402;SDS011;11874;48.228;11.684;2023-04-24T08:12:54;0.40;;;0.40;;
23402;SDS011;11874;48.228;11.684;2023-04-24T08:15:22;1.83;;;0.30;;
23402;SDS011;11874;48.228;11.684;2023-04-24T08:17:51;0.70;;;0.30;;
23402;SDS011;11874;48.228;11.684;2023-04-24T08:20:20;1.75;;;0.50;;
23402;SDS011;11874;48.228;11.684;2023-04-24T08:22:48;0.73;;;0.40;;
23402;SDS011;11874;48.228;11.684;2023-04-24T08:25:16;1.88;;;0.30;;
23402;SDS011;11874;48.228;11.684;2023-04-24T08:27:45;0.30;;;0.30;;
23402;SDS011;11874;48.228;11.684;2023-04-24T08:30:13;0.30;;;0.30;;
23402;SDS011;11874;48.228;11.684;2023-04-24T08:32:41;1.10;;;0.30;;
23402;SDS011;11874;48.228;11.684;2023-04-24T08:35:09;0.90;;;0.40;;
23402;SDS011;11874;48.228;11.684;2023-04-24T08:37:38;0.50;;;0.40;;
23402;SDS011;11874;48.228;11.684;2023-04-24T08:40:12;2.40;;;0.32;;
23402;SDS011;11874;48.228;11.684;2023-04-24T08:42:41;1.48;;;0.40;;
23402;SDS011;11874;48.228;11.684;2023-04-24T08:45:10;1.05;;;0.50;;
23402;SDS011;11874;48.228;11.684;2023-04-24T08:47:39;0.35;;;0.35;;
23402;SDS011;11874;48.228;11.684;2023-04-24T08:50:08;0.40;;;0.30;;
23402;SDS011;11874;48.228;11.684;2023-04-24T08:52:37;0.50;;;0.50;;
23402;SDS011;11874;48.228;11.684;2023-04-24T08:55:06;0.85;;;0.50;;
23402;SDS011;11874;48.228;11.684;2023-04-24T08:57:34;0.98;;;0.50;;
23402;SDS011;11874;48.228;11.684;2023-04-24T09:00:06;0.93;;;0.50;;
23402;SDS011;11874;48.228;11.684;2023-04-24T09:02:38;0.98;;;0.70;;
23402;SDS011;11874;48.228;11.684;2023-04-24T09:05:09;0.68;;;0.50;;
23402;SDS011;11874;48.228;11.684;2023-04-24T09:07:39;1.20;;;0.70;;
23402;SDS011;11874;48.228;11.684;2023-04-24T09:10:09;1.77;;;0.60;;
23402;SDS011;11874;48.228;11.684;2023-04-24T09:12:37;2.65;;;0.80;;
23402;SDS011;11874;48.228;11.684;2023-04-24T09:15:05;1.05;;;0.80;;
23402;SDS011;11874;48.228;11.684;2023-04-24T09:17:35;1.75;;;0.60;;
23402;SDS011;11874;48.228;11.684;2023-04-24T09:20:04;0.85;;;0.60;;
23402;SDS011;11874;48.228;11.684;2023-04-24T09:22:32;0.77;;;0.70;;
23402;SDS011;11874;48.228;11.684;2023-04-24T09:25:06;1.00;;;1.00;;
23402;SDS011;11874;48.228;11.684;2023-04-24T09:27:35;1.42;;;0.70;;
23402;SDS011;11874;48.228;11.684;2023-04-24T09:30:03;1.33;;;1.00;;
23402;SDS011;11874;48.228;11.684;2023-04-24T09:32:31;0.90;;;0.88;;
23402;SDS011;11874;48.228;11.684;2023-04-24T09:35:06;1.48;;;0.80;;
23402;SDS011;11874;48.228;11.684;2023-04-24T09:37:36;1.90;;;0.90;;
23402;SDS011;11874;48.228;11.684;2023-04-24T09:42:53;1.00;;;1.00;;
23402;SDS011;11874;48.228;11.684;2023-04-24T09:45:22;4.68;;;0.90;;
23402;SDS011;11874;48.228;11.684;2023-04-24T09:47:54;2.03;;;0.85;;
23402;SDS011;11874;48.228;11.684;2023-04-24T09:50:22;1.80;;;0.93;;
23402;SDS011;11874;48.228;11.684;2023-04-24T09:52:56;1.25;;;0.75;;
23402;SDS011;11874;48.228;11.684;2023-04-24T09:55:26;2.53;;;0.85;;
23402;SDS011;11874;48.228;11.684;2023-04-24T09:57:54;2.20;;;1.20;;
23402;SDS011;11874;48.228;11.684;2023-04-24T10:00:24;2.88;;;1.17;;
23402;SDS011;11874;48.228;11.684;2023-04-24T10:02:56;1.55;;;1.20;;
23402;SDS011;11874;48.228;11.684;2023-04-24T10:05:28;1.15;;;1.00;;
23402;SDS011;11874;48.228;11.684;2023-04-24T10:08:01;1.77;;;1.08;;
23402;SDS011;11874;48.228;11.684;2023-04-24T10:10:33;2.90;;;1.30;;
23402;SDS011;11874;48.228;11.684;2023-04-24T10:13:04;1.75;;;1.00;;
23402;SDS011;11874;48.228;11.684;2023-04-24T10:15:33;0.98;;;0.90;;
23402;SDS011;11874;48.228;11.684;2023-04-24T10:18:02;1.30;;;1.08;;
23402;SDS011;11874;48.228;11.684;2023-04-24T10:20:33;1.55;;;1.15;;
23402;SDS011;11874;48.228;11.684;2023-04-24T10:23:02;1.50;;;1.27;;
23402;SDS011;11874;48.228;11.684;2023-04-24T10:25:31;3.78;;;1.20;;
23402;SDS011;11874;48.228;11.684;2023-04-24T10:28:03;1.13;;;0.93;;
23402;SDS011;11874;48.228;11.684;2023-04-24T10:30:36;2.47;;;1.55;;
23402;SDS011;11874;48.228;11.684;2023-04-24T10:33:04;2.03;;;1.20;;
23402;SDS011;11874;48.228;11.684;2023-04-24T10:35:35;1.10;;;0.90;;
23402;SDS011;11874;48.228;11.684;2023-04-24T10:38:06;1.15;;;1.05;;
23402;SDS011;11874;48.228;11.684;2023-04-24T10:40:39;2.00;;;1.20;;
23402;SDS011;11874;48.228;11.684;2023-04-24T10:43:07;1.27;;;1.15;;
23402;SDS011;11874;48.228;11.684;2023-04-24T10:45:37;2.25;;;1.30;;
23402;SDS011;11874;48.228;11.684;2023-04-24T10:48:06;1.30;;;1.20;;
23402;SDS011;11874;48.228;11.684;2023-04-24T10:50:43;1.73;;;0.98;;
23402;SDS011;11874;48.228;11.684;2023-04-24T10:53:15;1.75;;;1.05;;
23402;SDS011;11874;48.228;11.684;2023-04-24T10:55:47;1.45;;;1.00;;
23402;SDS011;11874;48.228;11.684;2023-04-24T10:58:21;6.55;;;1.40;;
23402;SDS011;11874;48.228;11.684;2023-04-24T11:00:55;1.50;;;1.25;;
23402;SDS011;11874;48.228;11.684;2023-04-24T11:03:26;1.00;;;0.70;;
23402;SDS011;11874;48.228;11.684;2023-04-24T11:05:56;0.75;;;0.60;;
23402;SDS011;11874;48.228;11.684;2023-04-24T11:08:26;0.75;;;0.70;;
23402;SDS011;11874;48.228;11.684;2023-04-24T11:10:58;1.85;;;0.65;;
23402;SDS011;11874;48.228;11.684;2023-04-24T11:16:32;1.03;;;0.80;;
23402;SDS011;11874;48.228;11.684;2023-04-24T11:19:03;0.52;;;0.52;;
23402;SDS011;11874;48.228;11.684;2023-04-24T11:21:38;0.63;;;0.63;;
23402;SDS011;11874;48.228;11.684;2023-04-24T11:24:24;1.60;;;0.65;;
23402;SDS011;11874;48.228;11.684;2023-04-24T11:26:58;0.98;;;0.70;;
23402;SDS011;11874;48.228;11.684;2023-04-24T11:29:41;1.25;;;0.70;;
23402;SDS011;11874;48.228;11.684;2023-04-24T11:32:24;0.50;;;0.50;;
23402;SDS011;11874;48.228;11.684;2023-04-24T11:37:28;1.00;;;0.88;;
23402;SDS011;11874;48.228;11.684;2023-04-24T11:40:00;1.15;;;0.90;;
23402;SDS011;11874;48.228;11.684;2023-04-24T11:42:34;1.20;;;0.80;;
23402;SDS011;11874;48.228;11.684;2023-04-24T11:45:06;1.10;;;0.77;;
23402;SDS011;11874;48.228;11.684;2023-04-24T11:47:35;1.02;;;0.90;;
23402;SDS011;11874;48.228;11.684;2023-04-24T11:50:04;1.75;;;0.70;;
23402;SDS011;11874;48.228;11.684;2023-04-24T11:52:36;1.70;;;0.85;;
23402;SDS011;11874;48.228;11.684;2023-04-24T11:55:06;1.47;;;0.90;;
23402;SDS011;11874;48.228;11.684;2023-04-24T11:57:36;3.88;;;0.95;;
23402;SDS011;11874;48.228;11.684;2023-04-24T12:00:05;1.80;;;0.68;;
23402;SDS011;11874;48.228;11.684;2023-04-24T12:02:35;2.95;;;1.00;;
23402;SDS011;11874;48.228;11.684;2023-04-24T12:05:05;0.95;;;0.88;;
23402;SDS011;11874;48.228;11.684;2023-04-24T12:07:39;1.63;;;0.90;;
23402;SDS011;11874;48.228;11.684;2023-04-24T12:10:09;0.80;;;0.80;;
23402;SDS011;11874;48.228;11.684;2023-04-24T12:12:38;0.98;;;0.90;;
23402;SDS011;11874;48.228;11.684;2023-04-24T12:15:06;3.17;;;1.13;;
23402;SDS011;11874;48.228;11.684;2023-04-24T12:17:35;1.33;;;0.80;;
23402;SDS011;11874;48.228;11.684;2023-04-24T12:22:43;0.88;;;0.88;;
23402;SDS011;11874;48.228;11.684;2023-04-24T12:25:12;3.03;;;1.23;;
23402;SDS011;11874;48.228;11.684;2023-04-24T12:27:42;1.58;;;0.98;;
23402;SDS011;11874;48.228;11.684;2023-04-24T12:30:14;2.63;;;1.00;;
23402;SDS011;11874;48.228;11.684;2023-04-24T12:32:45;1.50;;;0.88;;
23402;SDS011;11874;48.228;11.684;2023-04-24T12:35:14;2.08;;;1.00;;
23402;SDS011;11874;48.228;11.684;2023-04-24T12:37:47;1.27;;;1.05;;
23402;SDS011;11874;48.228;11.684;2023-04-24T12:40:16;3.08;;;1.10;;
23402;SDS011;11874;48.228;11.684;2023-04-24T12:42:46;1.10;;;1.00;;
23402;SDS011;11874;48.228;11.684;2023-04-24T12:45:15;2.50;;;1.30;;
23402;SDS011;11874;48.228;11.684;2023-04-24T12:47:45;2.25;;;0.80;;
23402;SDS011;11874;48.228;11.684;2023-04-24T12:50:13;2.70;;;0.93;;
23402;SDS011;11874;48.228;11.684;2023-04-24T12:52:43;6.63;;;1.33;;
23402;SDS011;11874;48.228;11.684;2023-04-24T12:55:11;2.90;;;0.90;;
23402;SDS011;11874;48.228;11.684;2023-04-24T12:57:41;2.45;;;1.35;;
23402;SDS011;11874;48.228;11.684;2023-04-24T13:00:11;2.15;;;0.98;;
23402;SDS011;11874;48.228;11.684;2023-04-24T13:02:40;1.15;;;0.80;;
23402;SDS011;11874;48.228;11.684;2023-04-24T13:05:08;4.43;;;1.10;;
23402;SDS011;11874;48.228;11.684;2023-04-24T13:07:37;2.05;;;1.02;;
23402;SDS011;11874;48.228;11.684;2023-04-24T13:10:06;1.67;;;0.98;;
23402;SDS011;11874;48.228;11.684;2023-04-24T13:12:35;2.45;;;0.98;;
23402;SDS011;11874;48.228;11.684;2023-04-24T13:15:03;1.92;;;1.00;;
23402;SDS011;11874;48.228;11.684;2023-04-24T13:17:33;1.58;;;1.02;;
23402;SDS011;11874;48.228;11.684;2023-04-24T13:20:01;1.10;;;1.00;;
23402;SDS011;11874;48.228;11.684;2023-04-24T13:22:29;1.40;;;1.10;;
23402;SDS011;11874;48.228;11.684;2023-04-24T13:24:57;1.88;;;1.00;;
23402;SDS011;11874;48.228;11.684;2023-04-24T13:27:25;2.65;;;0.95;;
23402;SDS011;11874;48.228;11.684;2023-04-24T13:29:53;0.90;;;0.90;;
23402;SDS011;11874;48.228;11.684;2023-04-24T13:32:21;3.35;;;1.00;;
23402;SDS011;11874;48.228;11.684;2023-04-24T13:34:50;1.25;;;0.90;;
23402;SDS011;11874;48.228;11.684;2023-04-24T13:37:18;1.73;;;1.13;;
23402;SDS011;11874;48.228;11.684;2023-04-24T13:39:46;1.20;;;1.00;;
23402;SDS011;11874;48.228;11.684;2023-04-24T13:42:14;2.03;;;1.40;;
23402;SDS011;11874;48.228;11.684;2023-04-24T13:44:42;1.98;;;1.20;;
23402;SDS011;11874;48.228;11.684;2023-04-24T13:47:09;5.72;;;1.50;;
23402;SDS011;11874;48.228;11.684;2023-04-24T13:49:37;1.30;;;1.05;;
23402;SDS011;11874;48.228;11.684;2023-04-24T13:52:07;1.92;;;1.17;;
23402;SDS011;11874;48.228;11.684;2023-04-24T13:54:36;2.95;;;1.13;;
23402;SDS011;11874;48.228;11.684;2023-04-24T13:57:04;1.45;;;1.00;;
23402;SDS011;11874;48.228;11.684;2023-04-24T13:59:32;1.00;;;1.00;;
23402;SDS011;11874;48.228;11.684;2023-04-24T14:02:00;0.93;;;0.90;;
23402;SDS011;11874;48.228;11.684;2023-04-24T14:04:27;2.58;;;0.98;;
23402;SDS011;11874;48.228;11.684;2023-04-24T14:06:56;2.38;;;0.82;;
23402;SDS011;11874;48.228;11.684;2023-04-24T14:09:25;1.52;;;0.90;;
23402;SDS011;11874;48.228;11.684;2023-04-24T14:11:53;5.70;;;1.10;;
23402;SDS011;11874;48.228;11.684;2023-04-24T14:14:20;1.05;;;0.85;;
23402;SDS011;11874;48.228;11.684;2023-04-24T14:16:48;1.52;;;1.02;;
23402;SDS011;11874;48.228;11.684;2023-04-24T14:19:18;1.92;;;1.00;;
23402;SDS011;11874;48.228;11.684;2023-04-24T14:21:47;3.05;;;0.90;;
23402;SDS011;11874;48.228;11.684;2023-04-24T14:24:14;3.30;;;1.08;;
23402;SDS011;11874;48.228;11.684;2023-04-24T14:26:44;1.45;;;1.10;;
23402;SDS011;11874;48.228;11.684;2023-04-24T14:29:14;4.07;;;1.27;;
23402;SDS011;11874;48.228;11.684;2023-04-24T14:31:42;3.67;;;1.20;;
23402;SDS011;11874;48.228;11.684;2023-04-24T14:34:10;1.75;;;1.10;;
23402;SDS011;11874;48.228;11.684;2023-04-24T14:36:38;1.38;;;1.20;;
23402;SDS011;11874;48.228;11.684;2023-04-24T14:39:06;3.05;;;1.23;;
23402;SDS011;11874;48.228;11.684;2023-04-24T14:41:34;2.05;;;1.05;;
23402;SDS011;11874;48.228;11.684;2023-04-24T14:44:04;2.55;;;1.10;;
23402;SDS011;11874;48.228;11.684;2023-04-24T14:46:35;2.40;;;1.20;;
23402;SDS011;11874;48.228;11.684;2023-04-24T14:49:03;1.15;;;1.05;;
23402;SDS011;11874;48.228;11.684;2023-04-24T14:51:33;2.08;;;1.20;;
23402;SDS011;11874;48.228;11.684;2023-04-24T14:54:01;2.28;;;1.20;;
23402;SDS011;11874;48.228;11.684;2023-04-24T14:56:29;1.77;;;0.98;;
23402;SDS011;11874;48.228;11.684;2023-04-24T14:58:57;1.65;;;0.90;;
23402;SDS011;11874;48.228;11.684;2023-04-24T15:01:26;3.28;;;1.35;;
23402;SDS011;11874;48.228;11.684;2023-04-24T15:03:55;2.08;;;1.10;;
23402;SDS011;11874;48.228;11.684;2023-04-24T15:06:23;1.40;;;1.00;;
23402;SDS011;11874;48.228;11.684;2023-04-24T15:08:51;2.92;;;0.90;;
23402;SDS011;11874;48.228;11.684;2023-04-24T15:11:18;1.20;;;1.10;;
23402;SDS011;11874;48.228;11.684;2023-04-24T15:13:46;1.88;;;1.10;;
23402;SDS011;11874;48.228;11.684;2023-04-24T15:16:14;4.47;;;1.20;;
23402;SDS011;11874;48.228;11.684;2023-04-24T15:18:44;2.70;;;1.00;;
23402;SDS011;11874;48.228;11.684;2023-04-24T15:21:12;1.95;;;1.05;;
23402;SDS011;11874;48.228;11.684;2023-04-24T15:23:40;8.10;;;5.07;;
23402;SDS011;11874;48.228;11.684;2023-04-24T15:26:07;4.50;;;3.95;;
23402;SDS011;11874;48.228;11.684;2023-04-24T15:28:35;2.10;;;1.58;;
23402;SDS011;11874;48.228;11.684;2023-04-24T15:31:03;1.98;;;1.50;;
